HTT352 KTEB-CYOO
Flight info
| Callsign | HTT352 |
|---|---|
| Flight time | 0h 49m |
| Altitude | 40000 |
| Route | GAYEL Q812 SYR TULEG |
| Aircraft | LJ35/M-SGHRWXY/SB1 |
Departure
| Time | 2026-04-20 23:03 |
|---|---|
| Airport | Teterboro Airport (KTEB) |
Arrival
| Time | 2026-04-20 23:52 |
|---|---|
| Airport | Oshawa Executive Airport (CYOO) |
| Time | Latitude | Longitude | Altitude | Speed | Heading |
|---|---|---|---|---|---|
| 2026-04-20 22:31 | 40.84218 | -74.06269 | 10 ft | 0 kts | 182° |
| 2026-04-20 22:55 | 40.84201 | -74.06270 | 10 ft | 0 kts | 182° |
| 2026-04-20 22:56 | 40.84200 | -74.06270 | 10 ft | 1 kts | 187° |
| 2026-04-20 22:56 | 40.84213 | -74.06288 | -9 ft | 8 kts | 27° |
| 2026-04-20 22:57 | 40.84241 | -74.06226 | 11 ft | 5 kts | 99° |
| 2026-04-20 22:57 | 40.84241 | -74.06225 | 11 ft | 0 kts | 99° |
| 2026-04-20 22:57 | 40.84240 | -74.06220 | 11 ft | 2 kts | 95° |
| 2026-04-20 22:57 | 40.84234 | -74.06171 | 11 ft | 8 kts | 128° |
| 2026-04-20 22:58 | 40.84160 | -74.06162 | 10 ft | 14 kts | 182° |
| 2026-04-20 22:58 | 40.84062 | -74.06169 | 10 ft | 11 kts | 184° |
| 2026-04-20 22:58 | 40.84042 | -74.06171 | 10 ft | 0 kts | 178° |
| 2026-04-20 22:58 | 40.84034 | -74.06151 | 11 ft | 5 kts | 91° |
| 2026-04-20 22:59 | 40.84034 | -74.06134 | 11 ft | 0 kts | 92° |
| 2026-04-20 23:00 | 40.84034 | -74.06130 | 11 ft | 3 kts | 89° |
| 2026-04-20 23:00 | 40.84033 | -74.06071 | 12 ft | 8 kts | 88° |
| 2026-04-20 23:00 | 40.84068 | -74.06024 | 13 ft | 6 kts | 6° |
| 2026-04-20 23:01 | 40.84080 | -74.06022 | 13 ft | 0 kts | 6° |
| 2026-04-20 23:02 | 40.84144 | -74.06017 | 12 ft | 34 kts | 1° |
| 2026-04-20 23:02 | 40.84588 | -74.05986 | 10 ft | 102 kts | 4° |
| 2026-04-20 23:02 | 40.85587 | -74.05911 | 571 ft | 168 kts | 0° |
| 2026-04-20 23:03 | 40.86742 | -74.05647 | 1546 ft | 173 kts | 14° |
| 2026-04-20 23:03 | 40.87922 | -74.05033 | 1707 ft | 187 kts | 9° |
| 2026-04-20 23:03 | 40.88997 | -74.05579 | 2083 ft | 167 kts | 305° |
| 2026-04-20 23:03 | 40.89392 | -74.07027 | 2114 ft | 176 kts | 276° |
| 2026-04-20 23:04 | 40.89285 | -74.08664 | 2388 ft | 183 kts | 265° |
| 2026-04-20 23:04 | 40.89124 | -74.10290 | 3517 ft | 176 kts | 266° |
| 2026-04-20 23:04 | 40.88963 | -74.11883 | 4592 ft | 174 kts | 267° |
| 2026-04-20 23:04 | 40.88916 | -74.13447 | 5632 ft | 167 kts | 287° |
| 2026-04-20 23:05 | 40.89352 | -74.14868 | 6591 ft | 170 kts | 296° |
| 2026-04-20 23:05 | 40.89891 | -74.16361 | 6993 ft | 198 kts | 296° |
| 2026-04-20 23:05 | 40.90539 | -74.18108 | 7355 ft | 222 kts | 296° |
| 2026-04-20 23:05 | 40.91255 | -74.20002 | 8108 ft | 232 kts | 296° |
| 2026-04-20 23:06 | 40.91997 | -74.21899 | 9628 ft | 237 kts | 295° |
| 2026-04-20 23:06 | 40.92824 | -74.23931 | 10034 ft | 259 kts | 296° |
| 2026-04-20 23:06 | 40.93705 | -74.26042 | 10032 ft | 264 kts | 296° |
| 2026-04-20 23:06 | 40.94597 | -74.28163 | 10136 ft | 265 kts | 296° |
| 2026-04-20 23:07 | 40.95661 | -74.30184 | 11301 ft | 271 kts | 309° |
| 2026-04-20 23:07 | 40.97344 | -74.31505 | 12538 ft | 299 kts | 331° |
| 2026-04-20 23:07 | 40.99485 | -74.32010 | 13571 ft | 323 kts | 343° |
| 2026-04-20 23:07 | 41.01743 | -74.32387 | 14526 ft | 331 kts | 340° |
| 2026-04-20 23:08 | 41.04085 | -74.32732 | 15330 ft | 346 kts | 344° |
| 2026-04-20 23:08 | 41.06544 | -74.32886 | 16103 ft | 361 kts | 347° |
| 2026-04-20 23:08 | 41.09068 | -74.33045 | 16874 ft | 364 kts | 343° |
| 2026-04-20 23:08 | 41.11534 | -74.33370 | 17009 ft | 349 kts | 341° |
| 2026-04-20 23:09 | 41.13927 | -74.33639 | 17010 ft | 341 kts | 343° |
| 2026-04-20 23:09 | 41.16317 | -74.33803 | 17003 ft | 364 kts | 345° |
| 2026-04-20 23:09 | 41.18960 | -74.34005 | 17020 ft | 395 kts | 346° |
| 2026-04-20 23:09 | 41.21793 | -74.34233 | 17020 ft | 420 kts | 347° |
| 2026-04-20 23:10 | 41.24742 | -74.34454 | 17520 ft | 425 kts | 347° |
| 2026-04-20 23:10 | 41.27729 | -74.34677 | 17904 ft | 434 kts | 346° |
| 2026-04-20 23:10 | 41.30774 | -74.34930 | 18230 ft | 442 kts | 346° |
| 2026-04-20 23:10 | 41.33815 | -74.35430 | 18551 ft | 437 kts | 336° |
| 2026-04-20 23:11 | 41.36701 | -74.36610 | 18717 ft | 432 kts | 326° |
| 2026-04-20 23:11 | 41.39361 | -74.38396 | 18853 ft | 424 kts | 316° |
| 2026-04-20 23:11 | 41.41707 | -74.40686 | 19001 ft | 410 kts | 307° |
| 2026-04-20 23:11 | 41.43558 | -74.43129 | 19101 ft | 337 kts | 297° |
| 2026-04-20 23:12 | 41.44872 | -74.45431 | 19092 ft | 307 kts | 288° |
| 2026-04-20 23:12 | 41.45941 | -74.47865 | 19902 ft | 301 kts | 285° |
| 2026-04-20 23:12 | 41.46982 | -74.50302 | 20675 ft | 305 kts | 285° |
| 2026-04-20 23:12 | 41.48049 | -74.52770 | 21408 ft | 309 kts | 286° |
| 2026-04-20 23:13 | 41.49132 | -74.55270 | 22242 ft | 313 kts | 285° |
| 2026-04-20 23:13 | 41.50221 | -74.57786 | 23544 ft | 314 kts | 286° |
| 2026-04-20 23:13 | 41.51318 | -74.60333 | 24519 ft | 319 kts | 286° |
| 2026-04-20 23:13 | 41.52430 | -74.62914 | 25438 ft | 323 kts | 286° |
| 2026-04-20 23:14 | 41.53559 | -74.65531 | 26362 ft | 328 kts | 286° |
| 2026-04-20 23:14 | 41.54703 | -74.68190 | 27217 ft | 332 kts | 286° |
| 2026-04-20 23:14 | 41.55861 | -74.70880 | 28069 ft | 337 kts | 286° |
| 2026-04-20 23:14 | 41.57036 | -74.73617 | 28867 ft | 342 kts | 287° |
| 2026-04-20 23:15 | 41.58228 | -74.76393 | 29642 ft | 346 kts | 287° |
| 2026-04-20 23:15 | 41.59534 | -74.79155 | 30367 ft | 363 kts | 295° |
| 2026-04-20 23:15 | 41.61374 | -74.81626 | 30899 ft | 387 kts | 307° |
| 2026-04-20 23:15 | 41.63475 | -74.83923 | 31480 ft | 391 kts | 308° |
| 2026-04-20 23:16 | 41.65587 | -74.86212 | 32166 ft | 391 kts | 308° |
| 2026-04-20 23:16 | 41.67684 | -74.88538 | 32786 ft | 392 kts | 308° |
| 2026-04-20 23:16 | 41.69776 | -74.90878 | 33407 ft | 393 kts | 309° |
| 2026-04-20 23:16 | 41.71892 | -74.93222 | 34022 ft | 395 kts | 310° |
| 2026-04-20 23:17 | 41.73989 | -74.95534 | 34562 ft | 396 kts | 310° |
| 2026-04-20 23:17 | 41.76118 | -74.97893 | 35090 ft | 397 kts | 310° |
| 2026-04-20 23:17 | 41.78239 | -75.00255 | 35626 ft | 397 kts | 310° |
| 2026-04-20 23:17 | 41.80364 | -75.02618 | 36145 ft | 397 kts | 311° |
| 2026-04-20 23:18 | 41.82488 | -75.04980 | 36664 ft | 397 kts | 311° |
| 2026-04-20 23:18 | 41.84614 | -75.07348 | 37157 ft | 397 kts | 311° |
| 2026-04-20 23:18 | 41.86741 | -75.09720 | 37670 ft | 397 kts | 311° |
| 2026-04-20 23:18 | 41.88868 | -75.12091 | 38151 ft | 397 kts | 311° |
| 2026-04-20 23:19 | 41.90995 | -75.14466 | 38626 ft | 398 kts | 311° |
| 2026-04-20 23:19 | 41.93124 | -75.16847 | 39072 ft | 398 kts | 312° |
| 2026-04-20 23:19 | 41.95250 | -75.19226 | 39464 ft | 397 kts | 312° |
| 2026-04-20 23:19 | 41.97376 | -75.21603 | 39844 ft | 397 kts | 312° |
| 2026-04-20 23:20 | 41.99494 | -75.23977 | 40220 ft | 396 kts | 312° |
| 2026-04-20 23:20 | 42.01600 | -75.26349 | 40311 ft | 405 kts | 312° |
| 2026-04-20 23:20 | 42.06043 | -75.31308 | 40329 ft | 426 kts | 316° |
| 2026-04-20 23:21 | 42.08570 | -75.33534 | 40331 ft | 441 kts | 322° |
| 2026-04-20 23:21 | 42.11265 | -75.35613 | 40333 ft | 451 kts | 324° |
| 2026-04-20 23:21 | 42.16757 | -75.39918 | 40330 ft | 462 kts | 322° |
| 2026-04-20 23:22 | 42.22323 | -75.44397 | 40337 ft | 470 kts | 323° |
| 2026-04-20 23:22 | 42.27974 | -75.48870 | 40336 ft | 471 kts | 323° |
| 2026-04-20 23:23 | 42.33619 | -75.53409 | 40340 ft | 472 kts | 323° |
| 2026-04-20 23:23 | 42.39275 | -75.57927 | 40330 ft | 472 kts | 323° |
| 2026-04-20 23:24 | 42.44873 | -75.62454 | 40330 ft | 470 kts | 321° |
| 2026-04-20 23:24 | 42.49633 | -75.68240 | 40327 ft | 454 kts | 303° |
| 2026-04-20 23:25 | 42.52711 | -75.75546 | 40333 ft | 443 kts | 289° |
| 2026-04-20 23:25 | 42.55460 | -75.83048 | 40337 ft | 448 kts | 297° |
| 2026-04-20 23:26 | 42.58809 | -75.90192 | 40337 ft | 449 kts | 298° |
| 2026-04-20 23:26 | 42.62258 | -75.97268 | 40346 ft | 449 kts | 298° |
| 2026-04-20 23:27 | 42.65649 | -76.04370 | 40353 ft | 448 kts | 297° |
| 2026-04-20 23:27 | 42.68960 | -76.11537 | 40350 ft | 447 kts | 298° |
| 2026-04-20 23:28 | 42.72338 | -76.18634 | 40348 ft | 447 kts | 298° |
| 2026-04-20 23:28 | 42.75642 | -76.25718 | 40351 ft | 446 kts | 298° |
| 2026-04-20 23:29 | 42.79003 | -76.32873 | 40355 ft | 445 kts | 298° |
| 2026-04-20 23:29 | 42.82324 | -76.39994 | 40358 ft | 445 kts | 298° |
| 2026-04-20 23:30 | 42.85641 | -76.47108 | 40360 ft | 445 kts | 298° |
| 2026-04-20 23:30 | 42.88931 | -76.54187 | 40224 ft | 447 kts | 298° |
| 2026-04-20 23:31 | 42.90597 | -76.57778 | 39715 ft | 443 kts | 298° |
| 2026-04-20 23:31 | 42.92220 | -76.61268 | 39217 ft | 430 kts | 298° |
| 2026-04-20 23:31 | 42.93800 | -76.64683 | 38664 ft | 423 kts | 298° |
| 2026-04-20 23:31 | 42.95366 | -76.68083 | 38076 ft | 425 kts | 299° |
| 2026-04-20 23:32 | 42.96435 | -76.70399 | 37687 ft | 427 kts | 299° |
| 2026-04-20 23:32 | 42.98030 | -76.73853 | 37120 ft | 432 kts | 299° |
| 2026-04-20 23:32 | 42.99639 | -76.77339 | 36565 ft | 435 kts | 299° |
| 2026-04-20 23:32 | 43.01234 | -76.80801 | 36023 ft | 436 kts | 299° |
| 2026-04-20 23:33 | 43.02843 | -76.84300 | 35484 ft | 433 kts | 300° |
| 2026-04-20 23:33 | 43.04441 | -76.87779 | 34963 ft | 431 kts | 300° |
| 2026-04-20 23:33 | 43.06030 | -76.91246 | 34453 ft | 429 kts | 300° |
| 2026-04-20 23:33 | 43.07613 | -76.94698 | 33859 ft | 427 kts | 300° |
| 2026-04-20 23:34 | 43.09186 | -76.98134 | 33269 ft | 426 kts | 300° |
| 2026-04-20 23:34 | 43.10756 | -77.01569 | 32690 ft | 425 kts | 300° |
| 2026-04-20 23:34 | 43.12324 | -77.05005 | 32120 ft | 426 kts | 301° |
| 2026-04-20 23:34 | 43.13888 | -77.08431 | 31564 ft | 423 kts | 301° |
| 2026-04-20 23:35 | 43.15443 | -77.11839 | 31022 ft | 421 kts | 301° |
| 2026-04-20 23:35 | 43.18529 | -77.18631 | 29850 ft | 418 kts | 302° |
| 2026-04-20 23:35 | 43.20065 | -77.22012 | 29214 ft | 417 kts | 302° |
| 2026-04-20 23:36 | 43.21598 | -77.25392 | 28602 ft | 417 kts | 302° |
| 2026-04-20 23:36 | 43.23128 | -77.28768 | 27999 ft | 416 kts | 302° |
| 2026-04-20 23:36 | 43.24665 | -77.32166 | 27402 ft | 423 kts | 302° |
| 2026-04-20 23:36 | 43.26228 | -77.35622 | 26812 ft | 427 kts | 302° |
| 2026-04-20 23:37 | 43.27773 | -77.39036 | 26239 ft | 427 kts | 302° |
| 2026-04-20 23:37 | 43.29336 | -77.42506 | 25671 ft | 429 kts | 302° |
| 2026-04-20 23:37 | 43.30905 | -77.46004 | 25102 ft | 431 kts | 302° |
| 2026-04-20 23:37 | 43.32480 | -77.49506 | 24550 ft | 432 kts | 302° |
| 2026-04-20 23:38 | 43.34060 | -77.53015 | 24010 ft | 432 kts | 302° |
| 2026-04-20 23:38 | 43.35637 | -77.56531 | 23360 ft | 432 kts | 302° |
| 2026-04-20 23:38 | 43.37211 | -77.60046 | 22709 ft | 429 kts | 303° |
| 2026-04-20 23:38 | 43.38741 | -77.63478 | 22086 ft | 417 kts | 303° |
| 2026-04-20 23:39 | 43.40248 | -77.66849 | 21484 ft | 411 kts | 303° |
| 2026-04-20 23:39 | 43.41741 | -77.70183 | 20906 ft | 409 kts | 303° |
| 2026-04-20 23:39 | 43.43239 | -77.73531 | 20336 ft | 413 kts | 303° |
| 2026-04-20 23:39 | 43.44725 | -77.76878 | 19776 ft | 406 kts | 303° |
| 2026-04-20 23:40 | 43.46188 | -77.80175 | 19239 ft | 400 kts | 303° |
| 2026-04-20 23:40 | 43.47633 | -77.83422 | 18721 ft | 396 kts | 303° |
| 2026-04-20 23:40 | 43.49062 | -77.86634 | 18123 ft | 392 kts | 303° |
| 2026-04-20 23:40 | 43.50479 | -77.89828 | 17544 ft | 389 kts | 303° |
| 2026-04-20 23:41 | 43.51883 | -77.93000 | 16976 ft | 387 kts | 303° |
| 2026-04-20 23:41 | 43.53285 | -77.96165 | 16422 ft | 386 kts | 302° |
| 2026-04-20 23:41 | 43.54679 | -77.99319 | 15877 ft | 385 kts | 302° |
| 2026-04-20 23:41 | 43.56072 | -78.02473 | 15342 ft | 385 kts | 302° |
| 2026-04-20 23:42 | 43.57462 | -78.05625 | 14820 ft | 385 kts | 302° |
| 2026-04-20 23:42 | 43.58852 | -78.08776 | 14310 ft | 383 kts | 302° |
| 2026-04-20 23:42 | 43.60228 | -78.11887 | 13753 ft | 378 kts | 302° |
| 2026-04-20 23:42 | 43.61577 | -78.14954 | 13201 ft | 369 kts | 302° |
| 2026-04-20 23:43 | 43.62893 | -78.17956 | 12668 ft | 363 kts | 302° |
| 2026-04-20 23:43 | 43.64191 | -78.20913 | 12153 ft | 357 kts | 301° |
| 2026-04-20 23:43 | 43.65472 | -78.23835 | 11652 ft | 354 kts | 301° |
| 2026-04-20 23:43 | 43.66691 | -78.26618 | 11183 ft | 321 kts | 301° |
| 2026-04-20 23:44 | 43.67790 | -78.29132 | 10759 ft | 292 kts | 301° |
| 2026-04-20 23:44 | 43.68798 | -78.31437 | 10378 ft | 269 kts | 301° |
| 2026-04-20 23:44 | 43.69751 | -78.33616 | 9990 ft | 267 kts | 301° |
| 2026-04-20 23:44 | 43.70705 | -78.35802 | 9594 ft | 265 kts | 301° |
| 2026-04-20 23:45 | 43.71652 | -78.37975 | 9214 ft | 263 kts | 301° |
| 2026-04-20 23:45 | 43.72458 | -78.39823 | 8888 ft | 262 kts | 301° |
| 2026-04-20 23:45 | 43.73398 | -78.41981 | 8512 ft | 261 kts | 301° |
| 2026-04-20 23:45 | 43.74336 | -78.44135 | 8144 ft | 261 kts | 301° |
| 2026-04-20 23:46 | 43.75270 | -78.46282 | 7777 ft | 260 kts | 300° |
| 2026-04-20 23:46 | 43.76201 | -78.48425 | 7416 ft | 260 kts | 300° |
| 2026-04-20 23:46 | 43.77131 | -78.50565 | 7058 ft | 259 kts | 300° |
| 2026-04-20 23:46 | 43.78060 | -78.52706 | 6697 ft | 259 kts | 300° |
| 2026-04-20 23:47 | 43.78987 | -78.54844 | 6319 ft | 259 kts | 300° |
| 2026-04-20 23:47 | 43.79915 | -78.56985 | 5947 ft | 259 kts | 300° |
| 2026-04-20 23:47 | 43.80843 | -78.59129 | 5573 ft | 260 kts | 300° |
| 2026-04-20 23:47 | 43.81770 | -78.61273 | 5206 ft | 260 kts | 300° |
| 2026-04-20 23:48 | 43.82700 | -78.63424 | 4827 ft | 260 kts | 300° |
| 2026-04-20 23:48 | 43.83632 | -78.65580 | 4450 ft | 260 kts | 300° |
| 2026-04-20 23:48 | 43.84526 | -78.67648 | 4087 ft | 242 kts | 300° |
| 2026-04-20 23:48 | 43.85364 | -78.69591 | 3684 ft | 228 kts | 301° |
| 2026-04-20 23:49 | 43.86157 | -78.71429 | 3359 ft | 216 kts | 301° |
| 2026-04-20 23:49 | 43.86909 | -78.73176 | 3052 ft | 207 kts | 301° |
| 2026-04-20 23:49 | 43.87632 | -78.74855 | 2764 ft | 198 kts | 301° |
| 2026-04-20 23:49 | 43.88326 | -78.76470 | 2492 ft | 192 kts | 301° |
| 2026-04-20 23:50 | 43.88994 | -78.78042 | 2226 ft | 185 kts | 298° |
| 2026-04-20 23:50 | 43.89459 | -78.79644 | 1966 ft | 173 kts | 290° |
| 2026-04-20 23:50 | 43.89873 | -78.81162 | 1717 ft | 164 kts | 291° |
| 2026-04-20 23:50 | 43.90270 | -78.82573 | 1485 ft | 154 kts | 291° |
| 2026-04-20 23:51 | 43.90635 | -78.83883 | 1244 ft | 136 kts | 290° |
| 2026-04-20 23:51 | 43.90951 | -78.85023 | 1040 ft | 120 kts | 288° |
| 2026-04-20 23:51 | 43.91243 | -78.86070 | 876 ft | 118 kts | 289° |
| 2026-04-20 23:51 | 43.91554 | -78.87194 | 725 ft | 130 kts | 287° |
| 2026-04-20 23:52 | 43.91890 | -78.88396 | 567 ft | 135 kts | 289° |
| 2026-04-20 23:52 | 43.92213 | -78.89561 | 456 ft | 109 kts | 292° |
| 2026-04-20 23:52 | 43.92330 | -78.89965 | 459 ft | 9 kts | 299° |
| 2026-04-20 23:52 | 43.92408 | -78.90256 | 459 ft | 45 kts | 290° |
| 2026-04-20 23:53 | 43.92488 | -78.90359 | 461 ft | 17 kts | 44° |
| 2026-04-20 23:53 | 43.92505 | -78.90209 | 461 ft | 14 kts | 30° |
| 2026-04-20 23:53 | 43.92558 | -78.90264 | 461 ft | 8 kts | 304° |
| 2026-04-20 23:53 | 43.92574 | -78.90263 | 461 ft | 0 kts | 81° |